Time;durP1;ratioP1;P1;durP2;ratioP2;P2;SDS_P1;SDS_P2;PMS_P1;PMS_P2;Temp;Humidity;BMP_temperature;BMP_pressure;BME280_temperature;BME280_humidity;BME280_pressure;Samples;Min_cycle;Max_cycle;Signal;HPM_P1;HPM_P2
2023/08/05 00:00:33;;;;;;;12.20;8.47;;;;;;;27.24;44.12;94604.56;6139936;28;109669;-60
2023/08/05 00:03:36;;;;;;;8.93;8.23;;;;;;;27.15;44.59;94606.63;6136646;28;109273;-60
2023/08/05 00:06:41;;;;;;;9.50;8.80;;;;;;;27.23;43.97;94594.16;6136225;28;109125;-60
2023/08/05 00:09:44;;;;;;;7.77;7.17;;;;;;;27.18;43.73;94587.13;6127268;28;109154;-61
2023/08/05 00:12:47;;;;;;;10.20;8.57;;;;;;;27.23;44.07;94599.53;6159035;28;110133;-65
2023/08/05 00:15:51;;;;;;;9.67;8.77;;;;;;;27.22;44.29;94590.69;6135917;28;109246;-61
2023/08/05 00:18:54;;;;;;;9.40;8.50;;;;;;;27.07;44.14;94588.81;6134685;28;109685;-60
2023/08/05 00:21:58;;;;;;;8.80;8.10;;;;;;;27.10;43.98;94588.13;6125209;28;109836;-60
2023/08/05 00:25:02;;;;;;;8.83;7.93;;;;;;;27.11;44.13;94568.97;6136908;28;109566;-60
2023/08/05 00:28:05;;;;;;;8.57;7.97;;;;;;;26.99;44.15;94570.97;6135933;28;108956;-61
2023/08/05 00:31:09;;;;;;;8.50;7.90;;;;;;;26.84;44.59;94569.84;6139015;28;109154;-60
2023/08/05 00:34:13;;;;;;;8.37;7.57;;;;;;;26.92;44.86;94563.53;6123379;28;109235;-60
2023/08/05 00:37:17;;;;;;;8.97;8.33;;;;;;;27.01;44.15;94566.78;6135354;28;109225;-63
2023/08/05 00:40:20;;;;;;;8.70;8.10;;;;;;;26.82;44.57;94564.81;6144260;28;110464;-60
2023/08/05 00:43:24;;;;;;;8.80;8.10;;;;;;;26.87;44.25;94555.72;6150855;28;110315;-60
2023/08/05 00:46:27;;;;;;;8.50;7.90;;;;;;;26.84;44.39;94561.78;6143567;28;109706;-60
2023/08/05 00:49:31;;;;;;;8.90;8.30;;;;;;;26.94;44.59;94555.13;6151154;28;108832;-60
2023/08/05 00:52:37;;;;;;;8.63;8.00;;;;;;;26.91;44.18;94553.91;6141517;28;110080;-61
2023/08/05 00:55:41;;;;;;;8.57;7.87;;;;;;;27.01;44.64;94549.91;6127100;28;111091;-60
2023/08/05 00:58:45;;;;;;;8.77;8.07;;;;;;;26.90;44.90;94557.72;6147025;28;109436;-60
2023/08/05 01:01:48;;;;;;;9.30;8.60;;;;;;;26.90;44.74;94544.31;6136806;28;110610;-61
2023/08/05 01:04:51;;;;;;;8.67;7.97;;;;;;;26.91;44.98;94537.81;6144495;28;109927;-60
2023/08/05 01:07:57;;;;;;;9.10;8.40;;;;;;;26.91;44.85;94539.72;6118181;28;109308;-60
2023/08/05 01:11:02;;;;;;;8.37;7.67;;;;;;;26.87;44.48;94548.44;6140724;28;110535;-60
2023/08/05 01:14:05;;;;;;;9.17;8.47;;;;;;;26.89;44.58;94544.66;6136850;28;110257;-60
2023/08/05 01:17:08;;;;;;;8.67;8.03;;;;;;;26.81;44.78;94538.31;6145285;28;110110;-61
2023/08/05 01:20:14;;;;;;;8.57;7.93;;;;;;;26.73;44.97;94532.03;6127931;28;110049;-60
2023/08/05 01:23:22;;;;;;;8.70;8.00;;;;;;;26.79;45.16;94538.69;6141684;28;110940;-61
2023/08/05 01:26:26;;;;;;;8.97;8.20;;;;;;;26.77;44.89;94540.16;6153756;28;109089;-60
2023/08/05 01:29:29;;;;;;;8.67;7.67;;;;;;;26.81;44.65;94532.97;6133557;28;109206;-61
2023/08/05 01:32:35;;;;;;;9.13;8.40;;;;;;;26.74;44.87;94528.22;6152195;28;109130;-60
2023/08/05 01:35:38;;;;;;;9.00;8.10;;;;;;;26.85;44.47;94528.44;6147742;28;110291;-60
2023/08/05 01:38:41;;;;;;;9.30;8.50;;;;;;;26.75;45.00;94527.09;6132058;28;109158;-66
2023/08/05 01:41:45;;;;;;;8.30;7.60;;;;;;;26.63;45.11;94529.03;6118651;28;109281;-66
2023/08/05 01:44:48;;;;;;;8.90;8.20;;;;;;;26.51;45.76;94524.53;6152374;28;109214;-66
2023/08/05 01:47:52;;;;;;;8.87;8.00;;;;;;;26.60;45.54;94525.16;6138503;28;109258;-66
2023/08/05 01:50:55;;;;;;;9.40;8.70;;;;;;;26.68;45.40;94523.44;6132082;28;109488;-65
2023/08/05 01:53:58;;;;;;;8.40;7.73;;;;;;;26.78;44.66;94515.63;6129768;28;109911;-66
2023/08/05 01:57:02;;;;;;;9.17;8.13;;;;;;;26.65;44.95;94516.88;6136059;28;109153;-66
2023/08/05 02:00:07;;;;;;;9.17;8.47;;;;;;;26.68;44.68;94510.00;6126557;28;109360;-67
2023/08/05 02:03:10;;;;;;;8.90;8.10;;;;;;;26.59;45.42;94515.56;6125640;28;110982;-65
2023/08/05 02:06:14;;;;;;;8.77;7.87;;;;;;;26.56;45.41;94518.94;6136545;28;109297;-67
2023/08/05 02:09:17;;;;;;;9.03;8.33;;;;;;;26.44;45.20;94524.38;6137359;28;110119;-66
2023/08/05 02:12:22;;;;;;;9.23;8.53;;;;;;;26.51;45.23;94528.00;6133062;28;109535;-66
2023/08/05 02:15:27;;;;;;;9.23;8.33;;;;;;;26.60;44.65;94522.47;6129538;28;109607;-66
2023/08/05 02:18:30;;;;;;;8.40;7.80;;;;;;;26.53;45.05;94519.59;6122763;28;110273;-66
2023/08/05 02:21:33;;;;;;;8.93;8.03;;;;;;;26.47;45.54;94510.25;6152603;28;109264;-67
2023/08/05 02:24:36;;;;;;;8.87;7.93;;;;;;;26.31;45.93;94522.91;6142695;28;109603;-66
2023/08/05 02:27:41;;;;;;;8.93;8.13;;;;;;;26.37;45.68;94519.59;6126929;28;109580;-68
2023/08/05 02:30:44;;;;;;;8.80;8.10;;;;;;;26.44;45.21;94519.78;6141578;28;108980;-68
2023/08/05 02:33:47;;;;;;;8.47;7.87;;;;;;;26.46;45.45;94519.44;6143900;28;109187;-67
2023/08/05 02:36:50;;;;;;;8.73;8.07;;;;;;;26.38;45.08;94528.44;6123693;28;110211;-67
2023/08/05 02:39:54;;;;;;;8.73;7.93;;;;;;;26.14;46.22;94524.78;6123313;28;109278;-67
2023/08/05 02:42:59;;;;;;;8.77;8.00;;;;;;;26.32;45.83;94529.81;6140980;28;109251;-66
2023/08/05 02:46:02;;;;;;;8.30;7.60;;;;;;;26.14;46.25;94530.16;6152879;28;109995;-68
2023/08/05 02:49:08;;;;;;;8.97;8.30;;;;;;;26.17;46.11;94513.34;6136859;28;109081;-66
2023/08/05 02:52:11;;;;;;;8.27;7.67;;;;;;;26.27;45.25;94515.53;6159896;28;108904;-66
2023/08/05 02:55:14;;;;;;;8.90;8.30;;;;;;;26.28;45.62;94513.63;6142119;28;109318;-66
2023/08/05 02:58:19;;;;;;;8.33;7.73;;;;;;;26.11;45.82;94505.91;6146640;28;109293;-66
2023/08/05 03:01:22;;;;;;;8.20;7.50;;;;;;;26.22;45.64;94507.75;6142446;28;109345;-66
2023/08/05 03:04:25;;;;;;;9.37;8.67;;;;;;;26.27;46.13;94515.53;6157113;28;109217;-66
2023/08/05 03:07:28;;;;;;;8.90;8.20;;;;;;;26.18;45.79;94509.56;6154939;28;109201;-67
2023/08/05 03:10:32;;;;;;;8.73;7.93;;;;;;;26.07;45.70;94495.13;6134514;28;109874;-65
2023/08/05 03:13:36;;;;;;;8.13;7.43;;;;;;;26.10;45.66;94499.78;6131246;28;108904;-67
2023/08/05 03:16:39;;;;;;;8.20;7.50;;;;;;;26.06;45.93;94501.59;6138784;28;110061;-66
2023/08/05 03:19:43;;;;;;;9.70;8.77;;;;;;;25.93;45.96;94508.13;6137099;28;110013;-66
2023/08/05 03:22:46;;;;;;;8.53;7.93;;;;;;;26.03;46.09;94502.25;6129999;28;110321;-66
2023/08/05 03:25:49;;;;;;;8.57;7.87;;;;;;;26.17;45.57;94505.31;6151610;28;109528;-66
2023/08/05 03:28:53;;;;;;;8.70;8.00;;;;;;;26.12;45.76;94500.22;6135596;28;109185;-67
2023/08/05 03:31:56;;;;;;;9.23;8.33;;;;;;;26.05;46.34;94513.44;6150678;28;109261;-67
2023/08/05 03:34:59;;;;;;;9.20;8.40;;;;;;;26.06;46.06;94506.19;6136897;28;109661;-67
2023/08/05 03:38:03;;;;;;;8.97;8.37;;;;;;;25.91;45.94;94513.03;6125495;28;108972;-67
2023/08/05 03:41:06;;;;;;;8.60;7.90;;;;;;;25.97;46.28;94506.31;6131610;28;109039;-67
2023/08/05 03:44:10;;;;;;;7.93;7.33;;;;;;;25.99;45.94;94507.50;6134092;28;109251;-67
2023/08/05 03:47:14;;;;;;;9.07;8.33;;;;;;;26.04;45.58;94516.44;6134353;28;109619;-67
2023/08/05 03:50:17;;;;;;;8.40;7.77;;;;;;;26.06;45.61;94515.00;6140765;28;109404;-67
2023/08/05 03:53:20;;;;;;;8.30;7.60;;;;;;;25.96;46.24;94507.44;6157448;28;110263;-66
2023/08/05 03:56:26;;;;;;;8.17;7.67;;;;;;;26.12;45.82;94500.22;6138810;28;110123;-66
2023/08/05 03:59:30;;;;;;;8.97;8.30;;;;;;;26.17;45.30;94508.00;6130323;28;110251;-65
2023/08/05 04:02:34;;;;;;;7.93;7.23;;;;;;;26.09;45.88;94506.28;6137318;28;109280;-65
2023/08/05 04:05:37;;;;;;;8.13;7.43;;;;;;;25.98;45.69;94502.50;6137527;28;110293;-64
2023/08/05 04:08:40;;;;;;;8.43;7.90;;;;;;;25.96;46.08;94510.09;6123802;28;109154;-64
2023/08/05 04:11:45;;;;;;;8.00;7.40;;;;;;;25.95;45.97;94511.22;6139462;28;109327;-65
2023/08/05 04:14:50;;;;;;;8.63;7.73;;;;;;;25.83;46.03;94504.03;6147396;28;111000;-65
2023/08/05 04:17:57;;;;;;;8.07;7.47;;;;;;;25.76;46.35;94495.03;6134599;28;109432;-65
2023/08/05 04:21:00;;;;;;;8.87;8.27;;;;;;;25.73;46.31;94498.38;6131696;28;109523;-65
2023/08/05 04:24:03;;;;;;;8.70;8.00;;;;;;;25.67;46.61;94495.16;6156734;28;110068;-65
2023/08/05 04:27:07;;;;;;;8.93;8.13;;;;;;;25.73;46.50;94509.09;6144500;28;110049;-64
2023/08/05 04:30:12;;;;;;;8.20;7.60;;;;;;;25.65;46.35;94505.44;6126760;28;109517;-63
2023/08/05 04:33:15;;;;;;;8.30;7.70;;;;;;;25.71;46.51;94503.28;6127573;28;109826;-65
2023/08/05 04:36:18;;;;;;;8.80;7.90;;;;;;;25.50;46.55;94496.22;6137342;28;110568;-65
2023/08/05 04:39:22;;;;;;;8.80;8.00;;;;;;;25.64;46.26;94498.53;6133020;28;109540;-65
2023/08/05 04:42:25;;;;;;;8.80;8.10;;;;;;;25.63;46.62;94502.31;6122433;28;109620;-64
2023/08/05 04:45:29;;;;;;;8.60;7.90;;;;;;;25.86;46.53;94513.28;6137135;28;108949;-64
2023/08/05 04:48:32;;;;;;;8.90;8.20;;;;;;;25.66;46.67;94509.69;6126771;28;109499;-65
2023/08/05 04:51:36;;;;;;;8.75;8.00;;;;;;;25.72;46.66;94496.84;6130570;28;109149;-65
2023/08/05 04:54:40;;;;;;;9.10;8.30;;;;;;;25.78;46.03;94500.81;6141126;28;109492;-65
2023/08/05 04:57:44;;;;;;;9.30;8.40;;;;;;;25.84;46.07;94500.22;6154447;28;109354;-65
2023/08/05 05:00:48;;;;;;;8.97;8.27;;;;;;;25.68;46.57;94502.84;6143674;28;109473;-64
2023/08/05 05:03:52;;;;;;;8.90;8.00;;;;;;;25.69;46.77;94504.41;6131416;28;109193;-65
2023/08/05 05:06:55;;;;;;;8.73;8.02;;;;;;;25.76;46.00;94503.84;6121379;28;108999;-65
2023/08/05 05:09:58;;;;;;;8.32;7.72;;;;;;;25.69;46.68;94506.31;6132502;28;109210;-60
2023/08/05 05:13:01;;;;;;;8.02;7.43;;;;;;;25.72;46.48;94512.91;6145188;28;110353;-60
2023/08/05 05:16:06;;;;;;;8.65;7.95;;;;;;;25.91;46.27;94505.00;6129755;28;109291;-63
2023/08/05 05:19:09;;;;;;;9.10;8.20;;;;;;;26.03;46.43;94494.22;6140701;28;109190;-60
2023/08/05 05:22:17;;;;;;;9.57;8.15;;;;;;;26.12;46.04;94489.47;6154025;28;109298;-60
2023/08/05 05:25:20;;;;;;;8.70;7.90;;;;;;;26.09;45.88;94489.41;6158428;28;109507;-63
2023/08/05 05:28:23;;;;;;;9.43;7.40;;;;;;;26.20;45.91;94485.84;6125934;28;110416;-60
2023/08/05 05:31:28;;;;;;;9.00;8.10;;;;;;;26.25;45.35;94493.66;6146788;28;109169;-60
2023/08/05 05:34:31;;;;;;;9.15;8.20;;;;;;;26.36;44.97;94498.47;6160442;28;109282;-60
2023/08/05 05:37:34;;;;;;;8.75;7.97;;;;;;;26.43;45.42;94501.34;6144724;28;109145;-60
2023/08/05 05:40:40;;;;;;;8.60;7.90;;;;;;;26.62;44.58;94493.38;6132059;28;109313;-61
2023/08/05 05:43:44;;;;;;;9.10;8.20;;;;;;;26.72;45.91;94486.75;6138785;28;109325;-61
2023/08/05 05:46:48;;;;;;;8.63;7.82;;;;;;;26.57;45.06;94481.00;6142819;28;109981;-60
2023/08/05 05:49:52;;;;;;;8.80;8.10;;;;;;;26.43;44.88;94487.94;6143942;28;109413;-61
2023/08/05 05:52:55;;;;;;;9.65;8.75;;;;;;;26.48;44.90;94487.66;6136075;28;109315;-60
2023/08/05 05:55:59;;;;;;;8.57;7.95;;;;;;;26.63;44.11;94481.53;6136215;28;110277;-61
2023/08/05 05:59:02;;;;;;;8.80;8.10;;;;;;;26.86;44.36;94476.28;6136814;28;109072;-61
2023/08/05 06:02:07;;;;;;;9.40;8.70;;;;;;;26.91;44.42;94475.25;6125850;28;109465;-62
2023/08/05 06:05:10;;;;;;;9.40;8.70;;;;;;;27.18;44.11;94463.56;6139381;28;109260;-62
2023/08/05 06:08:13;;;;;;;9.70;8.90;;;;;;;27.19;43.28;94465.09;6156760;28;109471;-61
2023/08/05 06:11:16;;;;;;;8.73;7.93;;;;;;;27.28;42.80;94462.25;6134595;28;109451;-61
2023/08/05 06:14:20;;;;;;;8.80;8.10;;;;;;;27.42;42.67;94459.84;6124535;28;109243;-60
2023/08/05 06:17:24;;;;;;;9.30;8.40;;;;;;;27.43;43.36;94459.50;6150981;28;109357;-62
2023/08/05 06:20:29;;;;;;;13.43;8.30;;;;;;;27.61;43.71;94453.69;6149180;28;109196;-62
2023/08/05 06:23:33;;;;;;;8.20;7.60;;;;;;;27.69;43.00;94452.69;6144111;28;109854;-62
2023/08/05 06:26:36;;;;;;;8.23;7.50;;;;;;;27.79;42.02;94448.63;6143473;28;109699;-61
2023/08/05 06:29:39;;;;;;;8.27;7.67;;;;;;;27.78;41.89;94439.78;6136925;28;109312;-61
2023/08/05 06:32:43;;;;;;;9.23;8.43;;;;;;;27.88;41.90;94436.53;6136730;28;109195;-61
2023/08/05 06:35:46;;;;;;;8.47;7.80;;;;;;;27.88;41.87;94427.69;6126530;28;109141;-61
2023/08/05 06:38:50;;;;;;;8.80;8.13;;;;;;;27.88;42.33;94427.69;6126072;28;110166;-61
2023/08/05 06:41:53;;;;;;;9.97;8.40;;;;;;;27.82;42.15;94413.75;6129697;28;109643;-61
2023/08/05 06:44:56;;;;;;;8.80;8.17;;;;;;;27.89;41.79;94415.78;6113953;28;109168;-61
2023/08/05 06:48:00;;;;;;;8.27;7.67;;;;;;;27.98;42.47;94410.97;6140266;28;110810;-61
2023/08/05 06:51:04;;;;;;;8.70;8.00;;;;;;;28.22;41.78;94412.50;6115844;28;110150;-61
2023/08/05 06:54:10;;;;;;;8.53;7.93;;;;;;;28.20;41.72;94420.16;6136418;28;109061;-61
2023/08/05 06:57:13;;;;;;;9.60;8.90;;;;;;;28.24;41.80;94408.34;6136385;28;109100;-61
2023/08/05 07:00:17;;;;;;;9.23;8.50;;;;;;;28.47;41.73;94404.84;6125244;28;109144;-61
2023/08/05 07:03:22;;;;;;;9.10;8.40;;;;;;;28.13;41.59;94396.63;6145566;28;110405;-61
2023/08/05 07:06:26;;;;;;;9.20;8.53;;;;;;;28.09;41.46;94387.72;6142131;28;109524;-60
2023/08/05 07:09:29;;;;;;;8.43;7.83;;;;;;;28.12;41.08;94378.16;6155196;28;109174;-60
2023/08/05 07:12:32;;;;;;;8.60;7.70;;;;;;;28.25;41.18;94374.91;6142919;28;109127;-61
2023/08/05 07:15:36;;;;;;;8.88;8.18;;;;;;;28.35;40.80;94381.56;6158215;28;109547;-60
2023/08/05 07:18:40;;;;;;;8.82;8.02;;;;;;;28.48;40.72;94376.78;6135129;28;111737;-60
2023/08/05 07:21:43;;;;;;;8.00;7.20;;;;;;;28.55;40.76;94372.25;6132351;28;109892;-60
2023/08/05 07:24:46;;;;;;;8.70;8.10;;;;;;;28.63;41.11;94376.63;6160402;28;110133;-60
2023/08/05 07:27:50;;;;;;;8.80;8.10;;;;;;;28.71;40.81;94376.72;6144211;28;109255;-60
2023/08/05 07:31:02;;;;;;;8.50;7.80;;;;;;;28.76;40.93;94369.09;6131731;28;109260;-61
2023/08/05 07:34:08;;;;;;;8.83;8.10;;;;;;;28.75;41.23;94361.41;6101681;28;109272;-61
2023/08/05 07:37:14;;;;;;;8.57;7.97;;;;;;;28.82;40.98;94358.78;6120983;28;109696;-61
2023/08/05 07:40:17;;;;;;;8.90;8.20;;;;;;;28.89;41.47;94356.16;6135266;28;109100;-61
2023/08/05 07:43:23;;;;;;;8.27;7.63;;;;;;;28.83;41.43;94357.63;6130794;28;110427;-62
2023/08/05 07:46:30;;;;;;;9.73;8.93;;;;;;;28.85;41.35;94355.34;6129790;28;110747;-61
2023/08/05 07:49:36;;;;;;;9.07;8.27;;;;;;;28.88;41.02;94347.31;6135490;28;110059;-61
2023/08/05 07:52:39;;;;;;;8.77;7.90;;;;;;;29.00;40.65;94337.44;6135511;28;109477;-62
2023/08/05 07:55:42;;;;;;;9.03;8.37;;;;;;;29.01;41.03;94333.59;6124219;28;109466;-61
2023/08/05 07:58:46;;;;;;;9.13;8.23;;;;;;;29.02;40.92;94325.16;6130457;28;109102;-61
2023/08/05 08:01:49;;;;;;;9.80;9.00;;;;;;;28.98;40.33;94345.91;6116389;28;110195;-61
2023/08/05 08:04:55;;;;;;;9.13;8.33;;;;;;;29.05;39.52;94337.91;6135221;28;110127;-61
2023/08/05 08:08:00;;;;;;;9.87;8.93;;;;;;;29.20;39.32;94344.25;6124184;28;109347;-61
2023/08/05 08:11:03;;;;;;;8.97;8.20;;;;;;;29.23;39.36;94349.69;6134786;28;109181;-61
2023/08/05 08:14:06;;;;;;;12.03;9.63;;;;;;;29.21;39.70;94343.09;6134697;28;108990;-62
2023/08/05 08:17:09;;;;;;;14.97;11.97;;;;;;;29.26;40.44;94339.31;6131850;28;109447;-61
2023/08/05 08:20:14;;;;;;;13.90;12.50;;;;;;;29.39;40.01;94327.09;6129057;28;109156;-62
2023/08/05 08:23:17;;;;;;;11.67;10.47;;;;;;;29.41;39.90;94319.44;6150912;28;109127;-61
2023/08/05 08:26:20;;;;;;;11.17;10.27;;;;;;;29.31;40.08;94322.81;6127170;28;110339;-61
2023/08/05 08:29:23;;;;;;;11.27;10.20;;;;;;;28.99;40.71;94320.50;6125310;28;110757;-61
2023/08/05 08:32:26;;;;;;;11.37;10.37;;;;;;;29.12;41.66;94321.06;6135501;28;109267;-60
2023/08/05 08:35:31;;;;;;;10.60;9.80;;;;;;;29.36;40.80;94314.38;6146607;28;109529;-63
2023/08/05 08:38:34;;;;;;;10.90;9.93;;;;;;;29.37;40.58;94316.69;6134797;28;109119;-61
2023/08/05 08:41:42;;;;;;;11.03;10.00;;;;;;;28.48;41.43;94315.66;6103686;28;110571;-67
2023/08/05 08:44:46;;;;;;;12.30;10.10;;;;;;;27.45;42.04;94317.47;6133028;28;109225;-69
2023/08/05 08:47:50;;;;;;;12.23;11.20;;;;;;;26.89;43.18;94311.81;6135299;28;109425;-69
2023/08/05 08:50:55;;;;;;;11.43;10.30;;;;;;;26.68;42.46;94306.78;6159864;28;110046;-68
2023/08/05 08:54:00;;;;;;;13.73;11.40;;;;;;;26.38;42.21;94314.59;6151508;28;110089;-68
2023/08/05 08:57:03;;;;;;;13.60;12.10;;;;;;;26.11;42.66;94310.16;6150073;28;110510;-67
2023/08/05 09:00:08;;;;;;;15.63;12.90;;;;;;;25.94;41.71;94311.28;6142361;28;109190;-66
2023/08/05 09:03:13;;;;;;;12.17;11.13;;;;;;;25.80;41.23;94289.50;6141989;28;110239;-62
2023/08/05 09:06:21;;;;;;;14.70;12.20;;;;;;;25.84;39.92;94293.03;6142046;28;109183;-67
2023/08/05 09:09:24;;;;;;;12.90;11.80;;;;;;;25.71;39.47;94291.56;6163142;28;108876;-66
2023/08/05 09:12:30;;;;;;;;;;;;;;;25.55;39.30;94297.72;6160267;28;109088;-67
2023/08/05 09:15:34;;;;;;;;;;;;;;;25.57;38.48;94294.72;6132838;28;111111;-68
2023/08/05 09:18:43;;;;;;;;;;;;;;;25.52;37.98;94287.69;6149115;28;109146;-67
2023/08/05 09:21:47;;;;;;;;;;;;;;;25.23;37.92;94282.75;6142985;28;109400;-67
2023/08/05 09:24:50;;;;;;;;;;;;;;;25.10;37.95;94292.72;6158793;28;109074;-68
2023/08/05 09:27:53;;;;;;;;;;;;;;;25.16;37.85;94294.03;6146042;28;109118;-67
2023/08/05 09:31:11;;;;;;;;;;;;;;;25.09;37.50;94285.81;6166047;28;110737;-68
2023/08/05 09:34:14;;;;;;;;;;;;;;;24.96;38.18;94282.41;6152617;28;110176;-69
2023/08/05 09:37:21;;;;;;;;;;;;;;;24.93;38.00;94283.13;6135421;28;109246;-65
2023/08/05 09:40:26;;;;;;;;;;;;;;;24.72;38.16;94285.22;6155075;28;109041;-69
2023/08/05 09:43:31;;;;;;;;;;;;;;;24.96;40.18;94278.97;6152753;28;108828;-67
2023/08/05 09:46:38;;;;;;;;;;;;;;;24.96;39.03;94279.75;6141901;28;109435;-64
2023/08/05 09:49:42;;;;;;;;;;;;;;;24.76;39.65;94262.00;6132127;28;109136;-68
2023/08/05 09:52:59;;;;;;;;;;;;;;;24.74;39.99;94262.34;6158460;28;109111;-63
2023/08/05 09:56:04;;;;;;;;;;;;;;;24.69;40.70;94265.25;6157724;28;109125;-63
2023/08/05 09:59:08;;;;;;;;;;;;;;;24.72;40.58;94259.25;6143720;28;109093;-63
2023/08/05 10:02:12;;;;;;;;;;;;;;;24.69;40.32;94264.47;6130351;28;109049;-63
2023/08/05 10:05:15;;;;;;;;;;;;;;;24.61;41.55;94260.03;6152430;28;108816;-62
2023/08/05 10:08:21;;;;;;;;;;;;;;;24.67;42.00;94259.44;6139850;28;108905;-66
2023/08/05 10:11:24;;;;;;;;;;;;;;;24.56;42.76;94255.72;6128022;28;111739;-62
2023/08/05 10:14:28;;;;;;;;;;;;;;;24.73;42.98;94263.47;6131368;28;108847;-62
2023/08/05 10:17:32;;;;;;;;;;;;;;;24.47;43.89;94253.16;6142767;28;109496;-62
2023/08/05 10:20:35;;;;;;;;;;;;;;;24.55;43.70;94253.38;6145658;28;110393;-62
2023/08/05 10:23:40;;;;;;;;;;;;;;;24.45;42.98;94247.38;6129029;28;110231;-62
2023/08/05 10:26:43;;;;;;;;;;;;;;;24.35;42.68;94239.81;6139119;28;108922;-62
2023/08/05 10:29:52;;;;;;;;;;;;;;;24.29;42.52;94243.09;6143544;28;110505;-62
2023/08/05 10:32:56;;;;;;;;;;;;;;;24.41;42.21;94254.53;6135482;28;109421;-61
2023/08/05 10:36:01;;;;;;;;;;;;;;;24.24;41.66;94254.81;6122064;28;109163;-61
2023/08/05 10:39:06;;;;;;;;;;;;;;;24.20;42.00;94245.91;6135649;28;109108;-61
2023/08/05 10:42:18;;;;;;;;;;;;;;;24.13;41.75;94241.13;6119678;28;110096;-62
2023/08/05 10:45:21;;;;;;;;;;;;;;;24.08;42.16;94224.56;6129075;28;109127;-61
2023/08/05 10:48:28;;;;;;;;;;;;;;;23.87;42.51;94230.03;6139019;28;109119;-61
2023/08/05 10:51:33;;;;;;;;;;;;;;;23.73;42.56;94222.38;6137846;28;109283;-61
2023/08/05 10:54:37;;;;;;;;;;;;;;;23.99;42.81;94229.97;6137602;28;110410;-62
2023/08/05 10:57:47;;;;;;;;;;;;;;;24.16;43.42;94227.06;6125220;28;109277;-61
2023/08/05 11:00:56;;;;;;;;;;;;;;;24.03;42.63;94217.56;6137700;28;110255;-67
2023/08/05 11:03:59;;;;;;;;;;;;;;;23.84;42.20;94226.09;6149103;28;109102;-67
2023/08/05 11:07:03;;;;;;;;;;;;;;;23.77;42.15;94209.88;6146821;28;109186;-67
2023/08/05 11:10:08;;;;;;;;;;;;;;;23.83;41.41;94211.19;6141428;28;110730;-66
2023/08/05 11:13:12;;;;;;;16.10;12.93;;;;;;;23.75;41.30;94211.34;6135677;28;109380;-66
2023/08/05 11:16:17;;;;;;;13.23;11.95;;;;;;;23.67;41.19;94205.00;6134227;28;109458;-66
2023/08/05 11:19:20;;;;;;;13.55;12.30;;;;;;;23.63;40.93;94196.09;6127338;28;110061;-66
2023/08/05 11:22:27;;;;;;;13.32;12.02;;;;;;;23.61;40.65;94203.66;6129263;28;109302;-68
2023/08/05 11:25:31;;;;;;;13.30;12.00;;;;;;;23.51;41.11;94180.84;6123405;28;109588;-66
2023/08/05 11:28:35;;;;;;;13.30;12.10;;;;;;;23.74;40.85;94181.16;6141049;28;109133;-66
2023/08/05 11:31:38;;;;;;;12.93;11.80;;;;;;;24.41;40.50;94185.00;6148512;28;109658;-68
2023/08/05 11:34:42;;;;;;;12.50;11.30;;;;;;;24.58;39.27;94167.88;6147630;28;109159;-69
2023/08/05 11:37:45;;;;;;;12.05;11.02;;;;;;;24.37;39.16;94175.34;6133420;28;109323;-68
2023/08/05 11:40:51;;;;;;;11.65;10.65;;;;;;;24.24;39.29;94174.59;6136861;28;109313;-69
2023/08/05 11:43:55;;;;;;;11.80;10.80;;;;;;;24.18;39.07;94173.28;6148572;28;109667;-68
2023/08/05 11:47:03;;;;;;;11.98;10.98;;;;;;;24.23;40.24;94178.41;6137721;28;110006;-67
2023/08/05 11:50:12;;;;;;;13.18;11.90;;;;;;;24.05;43.48;94172.56;6138783;28;110025;-68
2023/08/05 11:53:16;;;;;;;12.82;11.70;;;;;;;24.00;43.35;94158.63;6120394;28;109185;-68
2023/08/05 11:56:24;;;;;;;13.10;12.00;;;;;;;23.65;43.17;94164.47;6139285;28;110241;-68
2023/08/05 11:59:43;;;;;;;11.50;10.60;;;;;;;23.60;42.64;94152.16;6135210;28;109374;-68
2023/08/05 12:02:53;;;;;;;12.10;11.00;;;;;;;23.63;41.60;94147.25;6126026;28;109061;-67
2023/08/05 12:06:01;;;;;;;11.40;10.40;;;;;;;24.07;40.43;94150.84;6127222;28;109063;-67
2023/08/05 12:09:06;;;;;;;11.38;10.48;;;;;;;24.14;39.70;94148.34;6135223;28;109375;-68
2023/08/05 12:12:15;;;;;;;10.90;10.00;;;;;;;24.12;39.36;94145.22;6130055;28;109235;-60
2023/08/05 12:15:24;;;;;;;11.10;10.17;;;;;;;24.05;38.79;94145.06;6144656;28;110111;-61
2023/08/05 12:18:30;;;;;;;11.23;9.55;;;;;;;23.94;39.09;94143.94;6117319;28;109100;-60
2023/08/05 12:21:33;;;;;;;9.98;9.18;;;;;;;23.89;38.24;94127.03;6133833;28;110203;-61
2023/08/05 12:24:41;;;;;;;10.80;9.80;;;;;;;23.82;38.24;94126.81;6125018;28;108805;-61
2023/08/05 12:27:47;;;;;;;9.70;8.80;;;;;;;23.88;37.77;94120.13;6120854;28;109306;-62
2023/08/05 12:30:50;;;;;;;9.80;9.00;;;;;;;23.98;37.96;94120.75;6141848;28;113030;-60
2023/08/05 12:33:53;;;;;;;9.77;8.88;;;;;;;24.04;38.41;94114.09;6114934;28;109573;-60
2023/08/05 12:36:56;;;;;;;9.25;8.45;;;;;;;23.90;38.88;94109.88;6129192;28;109449;-60
2023/08/05 12:39:59;;;;;;;9.23;8.43;;;;;;;24.14;38.71;94100.22;6121487;28;109276;-60
2023/08/05 12:43:04;;;;;;;9.57;8.68;;;;;;;24.01;39.15;94096.81;6125811;28;109694;-61
2023/08/05 12:46:07;;;;;;;8.70;7.90;;;;;;;24.28;39.09;94089.13;6131082;28;109190;-60
2023/08/05 12:49:10;;;;;;;10.10;9.20;;;;;;;24.06;42.01;94090.47;6138336;28;109078;-58
2023/08/05 12:52:13;;;;;;;10.88;9.88;;;;;;;23.80;43.91;94082.84;6123111;28;110362;-65
2023/08/05 12:55:16;;;;;;;11.02;10.10;;;;;;;23.99;45.30;94074.97;6115793;28;109292;-60
2023/08/05 12:58:21;;;;;;;10.63;9.73;;;;;;;24.43;43.47;94069.66;6152801;28;110121;-60
2023/08/05 13:01:24;;;;;;;10.37;9.43;;;;;;;24.74;42.93;94067.03;6149253;28;109337;-61
2023/08/05 13:04:27;;;;;;;10.20;9.30;;;;;;;24.72;42.51;94055.13;6140860;28;109511;-60
2023/08/05 13:07:31;;;;;;;10.45;9.50;;;;;;;24.93;42.21;94052.16;6156621;28;109280;-60
2023/08/05 13:10:35;;;;;;;10.37;9.37;;;;;;;24.68;41.51;94055.00;6156474;28;109050;-60
2023/08/05 13:13:40;;;;;;;9.77;8.98;;;;;;;24.47;42.04;94049.91;6136190;28;109065;-60
2023/08/05 13:16:43;;;;;;;9.90;8.90;;;;;;;24.43;41.83;94050.94;6154353;28;109469;-60
2023/08/05 13:19:46;;;;;;;10.15;9.40;;;;;;;24.42;41.62;94057.41;6137333;28;110300;-60
2023/08/05 13:22:49;;;;;;;9.82;9.02;;;;;;;24.35;41.49;94058.00;6121815;28;109215;-66
2023/08/05 13:25:52;;;;;;;9.50;8.80;;;;;;;24.30;41.66;94058.25;6140042;28;109554;-66
2023/08/05 13:28:57;;;;;;;9.93;9.13;;;;;;;23.71;42.51;94048.28;6133376;28;109361;-66
2023/08/05 13:32:00;;;;;;;10.40;9.60;;;;;;;23.73;42.61;94046.06;6131808;28;109226;-66
2023/08/05 13:35:03;;;;;;;10.20;9.40;;;;;;;23.90;42.65;94043.06;6138583;28;109295;-63
2023/08/05 13:38:06;;;;;;;10.40;9.50;;;;;;;23.69;43.74;94039.84;6122701;28;108947;-62
2023/08/05 13:41:09;;;;;;;11.17;10.20;;;;;;;23.83;44.21;94018.81;6145260;28;109222;-61
2023/08/05 13:44:14;;;;;;;10.77;9.87;;;;;;;23.95;44.75;94017.22;6146661;28;109092;-61
2023/08/05 13:47:17;;;;;;;10.15;9.40;;;;;;;23.82;44.73;94008.47;6126318;28;109962;-62
2023/08/05 13:50:20;;;;;;;11.15;10.35;;;;;;;23.90;45.00;94013.69;6138868;28;110203;-66
2023/08/05 13:53:23;;;;;;;11.10;10.10;;;;;;;23.99;44.96;93986.00;6141609;28;110085;-62
2023/08/05 13:56:26;;;;;;;11.00;10.20;;;;;;;24.14;44.57;93988.72;6154954;28;109247;-65
2023/08/05 13:59:32;;;;;;;10.50;9.40;;;;;;;24.30;43.91;93991.41;6108868;28;109304;-66
2023/08/05 14:02:35;;;;;;;10.13;9.27;;;;;;;24.01;44.24;93994.50;6145256;28;108789;-65
2023/08/05 14:05:39;;;;;;;9.85;9.05;;;;;;;24.03;44.68;93997.63;6154318;28;109260;-64
2023/08/05 14:08:42;;;;;;;9.80;9.00;;;;;;;23.94;44.40;93995.06;6142177;28;109080;-64
2023/08/05 14:11:45;;;;;;;15.17;9.87;;;;;;;23.89;45.07;93998.78;6145488;28;109686;-66
2023/08/05 14:14:49;;;;;;;22.37;10.23;;;;;;;24.66;45.43;93992.25;6153643;28;109170;-62
2023/08/05 14:17:52;;;;;;;14.30;9.90;;;;;;;24.37;44.68;93986.25;6151651;28;110342;-67
2023/08/05 14:20:56;;;;;;;10.40;8.80;;;;;;;24.09;44.04;93988.22;6133256;28;110230;-63
2023/08/05 14:23:59;;;;;;;10.95;8.80;;;;;;;23.98;44.59;93985.25;6107701;28;110186;-66